Time;durP1;ratioP1;P1;durP2;ratioP2;P2;SDS_P1;SDS_P2;PMS_P1;PMS_P2;Temp;Humidity;BMP_temperature;BMP_pressure;BME280_temperature;BME280_humidity;BME280_pressure;Samples;Min_cycle;Max_cycle;Signal;HPM_P1;HPM_P2
2023/06/14 00:00:48;;;;;;;8.85;2.72;;;;;;;14.98;50.86;100422.44;4987627;28;20046;-47
2023/06/14 00:03:17;;;;;;;7.78;2.15;;;;;;;14.95;51.05;100417.25;4988752;28;20051;-47
2023/06/14 00:05:46;;;;;;;4.28;2.03;;;;;;;14.92;51.26;100419.06;4986584;28;20069;-47
2023/06/14 00:08:13;;;;;;;9.70;2.55;;;;;;;14.88;51.65;100421.69;4985406;28;20052;-48
2023/06/14 00:10:41;;;;;;;11.82;2.28;;;;;;;14.83;51.75;100418.28;4981405;28;20109;-47
2023/06/14 00:13:09;;;;;;;7.75;2.30;;;;;;;14.79;52.53;100416.59;4987889;28;20131;-48
2023/06/14 00:15:36;;;;;;;8.25;2.42;;;;;;;14.72;52.36;100409.72;4984140;28;20050;-48
2023/06/14 00:18:04;;;;;;;5.40;2.17;;;;;;;14.69;52.16;100420.22;4985643;28;20454;-48
2023/06/14 00:20:33;;;;;;;6.50;2.35;;;;;;;14.65;53.00;100428.06;4985837;28;20153;-46
2023/06/14 00:23:00;;;;;;;4.50;1.77;;;;;;;14.60;53.03;100422.06;4982523;28;20225;-47
2023/06/14 00:25:27;;;;;;;5.78;1.98;;;;;;;14.56;52.93;100416.91;4985017;28;20081;-47
2023/06/14 00:27:57;;;;;;;5.40;2.38;;;;;;;14.52;52.99;100423.88;4984333;28;20065;-48
2023/06/14 00:30:24;;;;;;;5.75;2.30;;;;;;;14.49;53.60;100421.34;4984606;28;20526;-46
2023/06/14 00:32:51;;;;;;;6.10;1.98;;;;;;;14.48;53.32;100419.59;4981833;28;20051;-46
2023/06/14 00:35:18;;;;;;;7.20;2.42;;;;;;;14.45;53.14;100423.09;4985632;28;20061;-47
2023/06/14 00:37:45;;;;;;;6.13;2.50;;;;;;;14.45;53.31;100419.66;4980970;28;20708;-47
2023/06/14 00:40:12;;;;;;;3.83;2.45;;;;;;;14.43;53.00;100417.06;4985240;28;20050;-47
2023/06/14 00:42:39;;;;;;;3.85;1.73;;;;;;;14.41;53.69;100418.81;4993335;28;20057;-47
2023/06/14 00:45:07;;;;;;;7.75;2.75;;;;;;;14.40;53.42;100419.72;4981339;28;21113;-49
2023/06/14 00:47:35;;;;;;;5.85;2.28;;;;;;;14.38;53.14;100419.72;4986864;28;20042;-49
2023/06/14 00:50:02;;;;;;;6.45;2.67;;;;;;;14.37;53.92;100418.00;4986296;28;20380;-48
2023/06/14 00:52:29;;;;;;;6.15;2.47;;;;;;;14.33;54.05;100413.72;4985310;28;20051;-48
2023/06/14 00:54:56;;;;;;;5.88;2.05;;;;;;;14.31;53.46;100420.69;4983600;28;20070;-47
2023/06/14 00:57:23;;;;;;;5.70;2.65;;;;;;;14.27;53.63;100414.66;4984830;28;20050;-47
2023/06/14 00:59:50;;;;;;;5.88;2.13;;;;;;;14.24;53.78;100409.47;4983242;28;20064;-47
2023/06/14 01:02:17;;;;;;;8.07;2.35;;;;;;;14.21;54.05;100408.63;4986616;28;20064;-49
2023/06/14 01:04:48;;;;;;;5.72;2.75;;;;;;;14.19;54.61;100400.00;4986516;28;20054;-47
2023/06/14 01:15:31;;;;;;;5.78;2.78;;;;;;;14.00;54.89;100395.00;5102130;27;20393;-46
2023/06/14 01:18:03;;;;;;;7.90;2.40;;;;;;;13.95;54.90;100391.59;5026506;28;20053;-49
2023/06/14 01:20:33;;;;;;;5.32;2.25;;;;;;;13.88;55.06;100396.84;5011670;28;20431;-47
2023/06/14 01:23:00;;;;;;;4.20;2.10;;;;;;;13.82;54.93;100390.88;5020941;28;20633;-48
2023/06/14 01:25:27;;;;;;;5.30;2.63;;;;;;;13.73;55.42;100395.28;5025988;28;20053;-47
2023/06/14 01:27:59;;;;;;;7.20;2.25;;;;;;;13.67;54.80;100391.88;5043395;28;20053;-47
2023/06/14 01:30:27;;;;;;;8.27;2.40;;;;;;;13.62;55.67;100394.53;5042899;28;20049;-49
2023/06/14 01:32:55;;;;;;;7.05;2.40;;;;;;;13.58;55.57;100393.69;5040026;28;20138;-47
2023/06/14 01:35:22;;;;;;;4.25;2.33;;;;;;;13.54;56.82;100392.00;5035244;28;22352;-49
2023/06/14 01:37:50;;;;;;;6.28;2.45;;;;;;;13.50;56.12;100392.91;5045117;28;20044;-49
2023/06/14 01:40:19;;;;;;;6.32;2.13;;;;;;;13.47;55.97;100400.69;5056005;28;20103;-46
2023/06/14 01:42:48;;;;;;;9.65;2.80;;;;;;;13.47;56.02;100400.69;5039496;28;20056;-49
2023/06/14 01:45:16;;;;;;;12.05;3.97;;;;;;;13.44;56.38;100400.75;5043207;28;20099;-47
2023/06/14 01:47:45;;;;;;;4.75;3.00;;;;;;;13.42;56.32;100392.94;5037704;28;20052;-47
2023/06/14 01:50:13;;;;;;;9.15;2.45;;;;;;;13.40;56.73;100388.66;5036387;28;20574;-48
2023/06/14 01:52:40;;;;;;;7.07;3.00;;;;;;;13.37;56.32;100385.19;5039925;28;20042;-46
2023/06/14 01:55:07;;;;;;;7.55;2.60;;;;;;;13.33;56.32;100383.47;5043029;28;20207;-47
2023/06/14 01:57:34;;;;;;;7.53;2.83;;;;;;;13.31;57.39;100387.81;5059633;28;20056;-48
2023/06/14 02:00:01;;;;;;;8.80;2.90;;;;;;;13.30;57.57;100387.84;5061917;28;20041;-47
2023/06/14 02:02:27;;;;;;;7.53;2.42;;;;;;;13.27;57.09;100388.72;5067191;28;20052;-47
2023/06/14 02:04:57;;;;;;;7.72;2.38;;;;;;;13.25;56.63;100380.09;5059320;28;20049;-47
2023/06/14 02:07:26;;;;;;;8.18;2.55;;;;;;;13.22;57.05;100385.31;5053193;28;20087;-48
2023/06/14 02:09:52;;;;;;;7.32;4.00;;;;;;;13.19;56.76;100387.94;5055593;28;20052;-48
2023/06/14 02:12:19;;;;;;;6.20;2.55;;;;;;;13.15;57.97;100383.63;5057281;28;20059;-48
2023/06/14 02:14:46;;;;;;;8.68;2.65;;;;;;;13.12;56.99;100374.13;5059997;28;20050;-47
2023/06/14 02:17:13;;;;;;;5.57;2.25;;;;;;;13.08;57.24;100383.66;5054276;28;20045;-47
2023/06/14 02:19:40;;;;;;;5.97;3.47;;;;;;;13.06;58.03;100375.03;5060080;28;20051;-47
2023/06/14 02:22:06;;;;;;;4.82;2.58;;;;;;;13.07;57.78;100381.94;5058786;28;20056;-49
2023/06/14 02:24:33;;;;;;;7.63;2.85;;;;;;;13.04;57.14;100381.97;5055239;28;20060;-47
2023/06/14 02:27:00;;;;;;;7.60;3.42;;;;;;;13.03;57.32;100385.44;5047241;28;20090;-47
2023/06/14 02:29:26;;;;;;;5.25;2.90;;;;;;;13.02;58.44;100391.53;5042020;28;20044;-47
2023/06/14 02:31:53;;;;;;;7.15;2.13;;;;;;;13.00;58.56;100382.88;5045015;28;20080;-47
2023/06/14 02:34:21;;;;;;;6.13;2.85;;;;;;;12.99;57.60;100378.56;5044442;28;20191;-47
2023/06/14 02:36:48;;;;;;;8.93;2.72;;;;;;;12.96;57.51;100382.03;5040636;28;20362;-49
2023/06/14 02:39:14;;;;;;;6.20;3.10;;;;;;;12.95;57.93;100379.44;5046054;28;20079;-47
2023/06/14 02:41:41;;;;;;;6.47;2.33;;;;;;;12.92;58.16;100377.75;5048174;28;20076;-46
2023/06/14 02:44:11;;;;;;;7.10;2.92;;;;;;;12.92;58.92;100374.28;5043687;28;20106;-47
2023/06/14 02:46:38;;;;;;;7.40;2.70;;;;;;;12.90;58.93;100378.63;5044654;28;20052;-47
2023/06/14 02:49:05;;;;;;;8.07;3.30;;;;;;;12.88;57.83;100385.56;5040935;28;20173;-45
2023/06/14 02:51:32;;;;;;;8.45;2.85;;;;;;;12.85;58.53;100382.13;5042901;28;20108;-47
2023/06/14 02:53:58;;;;;;;7.18;2.85;;;;;;;12.84;57.74;100380.38;5042821;28;20045;-47
2023/06/14 02:56:26;;;;;;;6.50;2.70;;;;;;;12.80;57.94;100376.06;5036089;28;20044;-47
2023/06/14 02:58:53;;;;;;;9.35;2.70;;;;;;;12.76;58.90;100379.56;5037415;28;20042;-47
2023/06/14 03:01:20;;;;;;;6.82;2.85;;;;;;;12.74;57.97;100378.72;5040440;28;20060;-47
2023/06/14 03:03:47;;;;;;;9.82;2.78;;;;;;;12.73;58.09;100376.97;5041576;28;20095;-47
2023/06/14 03:06:16;;;;;;;5.70;3.13;;;;;;;12.70;59.15;100377.88;5043636;28;20041;-48
2023/06/14 03:08:43;;;;;;;4.85;2.90;;;;;;;12.67;58.69;100371.84;5042033;28;20052;-47
2023/06/14 03:11:10;;;;;;;7.97;3.05;;;;;;;12.63;58.18;100381.38;5044086;28;20048;-47
2023/06/14 03:13:38;;;;;;;8.05;3.08;;;;;;;12.59;59.37;100377.94;5043983;28;20103;-49
2023/06/14 03:16:07;;;;;;;7.65;2.50;;;;;;;12.57;59.35;100377.06;5042631;28;20404;-47
2023/06/14 03:18:35;;;;;;;5.25;2.33;;;;;;;12.56;59.00;100374.47;5043064;28;20143;-46
2023/06/14 03:21:02;;;;;;;9.75;3.40;;;;;;;12.55;59.31;100372.78;5043172;28;20053;-48
2023/06/14 03:23:30;;;;;;;5.93;2.90;;;;;;;12.49;58.50;100373.66;5041581;28;20512;-48
2023/06/14 03:25:57;;;;;;;6.72;2.63;;;;;;;12.46;58.38;100376.28;5043003;28;20041;-48
2023/06/14 03:28:23;;;;;;;6.80;2.80;;;;;;;12.42;59.49;100377.16;5047337;28;20052;-47
2023/06/14 03:30:51;;;;;;;7.97;3.17;;;;;;;12.38;59.33;100372.84;5038377;28;20041;-48
2023/06/14 03:33:18;;;;;;;5.82;2.75;;;;;;;12.35;59.12;100381.53;5044163;28;20041;-46
2023/06/14 03:35:45;;;;;;;7.57;2.97;;;;;;;12.31;59.77;100378.09;5040340;28;20409;-48
2023/06/14 03:38:12;;;;;;;9.15;3.63;;;;;;;12.27;59.88;100373.78;5039923;28;20087;-48
2023/06/14 03:40:39;;;;;;;11.70;3.40;;;;;;;12.23;59.17;100372.09;5041333;28;20538;-50
2023/06/14 03:43:05;;;;;;;6.10;3.22;;;;;;;12.21;58.93;100373.81;5040916;28;20484;-48
2023/06/14 03:45:32;;;;;;;11.38;4.07;;;;;;;12.21;60.17;100371.22;5045022;28;20049;-48
2023/06/14 03:48:00;;;;;;;7.70;3.33;;;;;;;12.19;59.90;100373.81;5038609;28;20045;-48
2023/06/14 03:50:28;;;;;;;8.38;3.78;;;;;;;12.17;59.25;100372.09;5044659;28;20044;-47
2023/06/14 03:52:54;;;;;;;10.05;3.78;;;;;;;12.14;59.50;100372.97;5040105;28;20048;-48
2023/06/14 03:55:21;;;;;;;7.32;4.13;;;;;;;12.12;60.49;100379.06;5044953;28;20040;-47
2023/06/14 03:58:07;;;;;;;5.97;3.72;;;;;;;12.10;59.88;100385.97;5044082;28;20122;-48
2023/06/14 04:00:35;;;;;;;8.85;4.18;;;;;;;12.08;60.42;100383.38;5045358;28;20056;-48
2023/06/14 04:03:04;;;;;;;18.60;5.28;;;;;;;12.07;60.54;100373.88;5040780;28;20567;-48
2023/06/14 04:05:31;;;;;;;9.75;4.68;;;;;;;12.06;60.95;100375.59;5036799;28;20056;-47
2023/06/14 04:07:58;;;;;;;9.27;4.65;;;;;;;12.04;60.62;100372.13;5042017;28;20049;-48
2023/06/14 04:10:25;;;;;;;7.55;4.00;;;;;;;12.04;60.83;100374.72;5035755;28;20570;-48
2023/06/14 04:12:52;;;;;;;8.38;4.30;;;;;;;12.04;60.05;100382.50;5045927;28;20412;-49
2023/06/14 04:15:18;;;;;;;8.30;4.85;;;;;;;12.03;60.86;100385.94;5041053;28;20056;-47
2023/06/14 04:17:48;;;;;;;8.35;5.22;;;;;;;12.02;60.00;100379.03;5042951;28;20683;-48
2023/06/14 04:20:15;;;;;;;7.80;5.07;;;;;;;12.01;60.91;100382.50;5043601;28;20049;-47
2023/06/14 04:22:43;;;;;;;9.15;5.07;;;;;;;12.01;61.10;100387.69;5040530;28;20045;-48
2023/06/14 04:25:11;;;;;;;8.00;5.30;;;;;;;12.02;59.74;100389.41;5044455;28;20041;-48
2023/06/14 04:27:38;;;;;;;10.95;5.43;;;;;;;12.03;60.57;100385.94;5042773;28;20084;-48
2023/06/14 04:30:05;;;;;;;10.18;4.70;;;;;;;12.05;60.44;100389.41;5042316;28;20400;-49
2023/06/14 04:32:38;;;;;;;9.23;5.30;;;;;;;12.06;60.57;100385.97;5043206;28;20504;-46
2023/06/14 04:35:07;;;;;;;7.43;4.30;;;;;;;12.08;61.01;100394.63;5042864;28;20051;-47
2023/06/14 04:37:34;;;;;;;9.48;5.57;;;;;;;12.12;60.37;100389.44;5036085;28;20081;-47
2023/06/14 04:40:00;;;;;;;11.77;5.68;;;;;;;12.15;60.59;100384.22;5043612;28;20041;-47
2023/06/14 04:42:30;;;;;;;12.70;5.80;;;;;;;12.20;60.70;100392.88;5040759;28;20541;-47
2023/06/14 04:44:57;;;;;;;11.75;5.15;;;;;;;12.27;60.82;100393.69;5037008;28;20120;-49
2023/06/14 04:47:29;;;;;;;10.85;5.43;;;;;;;12.33;61.32;100394.53;5039154;28;20500;-47
2023/06/14 04:49:57;;;;;;;10.32;5.57;;;;;;;12.41;61.23;100396.22;5044994;28;20041;-46
2023/06/14 04:52:26;;;;;;;13.60;6.47;;;;;;;12.46;61.15;100399.66;5040809;28;20053;-46
2023/06/14 04:54:54;;;;;;;10.25;5.72;;;;;;;12.54;61.20;100400.50;5046413;28;20548;-46
2023/06/14 04:57:22;;;;;;;9.32;5.55;;;;;;;12.60;62.21;100391.81;5043937;28;20088;-47
2023/06/14 04:59:54;;;;;;;14.40;5.10;;;;;;;12.66;61.57;100394.34;5042232;28;20501;-48
2023/06/14 05:02:23;;;;;;;9.63;5.93;;;;;;;12.74;62.13;100391.72;5036918;28;20057;-48
2023/06/14 05:04:51;;;;;;;11.77;4.95;;;;;;;12.81;61.28;100384.75;5052803;28;20124;-47
2023/06/14 05:07:17;;;;;;;10.65;5.65;;;;;;;12.88;61.77;100386.44;5043621;28;20057;-47
2023/06/14 05:09:45;;;;;;;8.70;5.30;;;;;;;12.96;62.26;100384.63;5040837;28;20048;-46
2023/06/14 05:12:12;;;;;;;9.13;4.55;;;;;;;13.04;61.99;100381.97;5037387;28;20041;-47
2023/06/14 05:14:39;;;;;;;9.10;5.68;;;;;;;13.10;61.90;100387.13;5039053;28;20474;-47
2023/06/14 05:17:06;;;;;;;9.60;4.63;;;;;;;13.20;62.16;100392.25;5033177;28;20185;-48
2023/06/14 05:19:33;;;;;;;10.63;5.70;;;;;;;13.31;62.84;100390.41;5031995;28;20804;-48
2023/06/14 05:22:00;;;;;;;13.57;5.22;;;;;;;13.42;61.99;100387.75;5038962;28;20045;-46
2023/06/14 05:24:28;;;;;;;8.55;4.53;;;;;;;13.53;62.41;100394.59;5040092;28;20045;-47
2023/06/14 05:26:56;;;;;;;9.18;4.43;;;;;;;13.62;62.48;100390.16;5039640;28;20053;-46
2023/06/14 05:29:23;;;;;;;10.90;3.90;;;;;;;13.75;61.93;100396.13;5039344;28;20087;-47
2023/06/14 05:31:49;;;;;;;7.82;3.92;;;;;;;13.87;62.05;100395.13;5038454;28;20056;-47
2023/06/14 05:34:16;;;;;;;7.38;4.55;;;;;;;14.01;62.84;100401.91;5036911;28;20111;-48
2023/06/14 05:36:43;;;;;;;9.07;4.78;;;;;;;14.12;63.17;100400.06;5016305;28;20053;-48
2023/06/14 05:39:10;;;;;;;10.85;4.30;;;;;;;14.23;63.05;100391.25;5021407;28;20054;-46
2023/06/14 05:41:37;;;;;;;11.85;5.03;;;;;;;14.40;62.90;100397.09;5021255;28;20095;-47
2023/06/14 05:44:04;;;;;;;6.82;4.47;;;;;;;14.57;62.37;100396.03;5019001;28;20400;-46
2023/06/14 05:46:30;;;;;;;12.77;4.82;;;;;;;14.69;62.83;100394.97;5024053;28;20044;-45
2023/06/14 05:48:57;;;;;;;8.05;4.40;;;;;;;14.80;62.92;100386.19;5037564;28;20739;-46
2023/06/14 05:51:24;;;;;;;9.73;4.95;;;;;;;14.92;62.35;100390.38;5041436;28;20053;-46
2023/06/14 05:53:52;;;;;;;8.38;4.10;;;;;;;15.06;62.62;100391.00;5021166;28;20464;-46
2023/06/14 05:56:19;;;;;;;8.32;4.78;;;;;;;15.20;62.49;100395.13;5012436;28;20054;-47
2023/06/14 05:58:46;;;;;;;10.02;5.05;;;;;;;15.33;62.10;100399.25;5023670;28;20053;-46
2023/06/14 06:01:13;;;;;;;12.43;4.40;;;;;;;15.47;62.78;100403.38;5054659;28;20075;-46
2023/06/14 06:03:41;;;;;;;13.23;4.82;;;;;;;15.62;62.51;100397.91;5042350;28;20045;-48
2023/06/14 06:06:08;;;;;;;7.93;3.92;;;;;;;15.82;62.23;100391.44;5040248;28;20094;-48
2023/06/14 06:08:34;;;;;;;9.38;4.10;;;;;;;15.99;61.89;100392.88;5040662;28;20432;-46
2023/06/14 06:11:01;;;;;;;8.45;4.47;;;;;;;16.19;61.67;100390.72;5047244;28;20440;-47
2023/06/14 06:13:28;;;;;;;6.03;3.28;;;;;;;16.36;62.12;100389.53;5040578;28;20050;-45
2023/06/14 06:15:55;;;;;;;7.50;3.63;;;;;;;16.55;61.49;100389.13;5044389;28;20045;-48
2023/06/14 06:18:22;;;;;;;6.65;3.60;;;;;;;16.74;61.54;100393.91;5044670;28;20059;-48
2023/06/14 06:20:48;;;;;;;5.63;3.33;;;;;;;16.89;61.83;100409.25;5044704;28;20044;-50
2023/06/14 06:23:15;;;;;;;8.13;3.40;;;;;;;16.98;60.75;100399.50;5045655;28;20065;-47
2023/06/14 06:25:42;;;;;;;10.85;4.57;;;;;;;17.14;61.73;100408.72;5043292;28;20049;-48
2023/06/14 06:28:09;;;;;;;8.48;3.35;;;;;;;17.29;61.39;100409.25;5045497;28;20059;-47
2023/06/14 06:30:36;;;;;;;13.10;3.83;;;;;;;17.50;61.63;100412.22;5047200;28;20045;-47
2023/06/14 06:33:03;;;;;;;7.20;3.30;;;;;;;17.75;60.88;100419.41;5040014;28;20049;-47
2023/06/14 06:35:31;;;;;;;10.45;3.85;;;;;;;17.94;59.97;100420.63;5045487;28;20109;-48
2023/06/14 06:37:57;;;;;;;7.18;3.58;;;;;;;18.07;59.94;100420.31;5045512;28;20080;-49
2023/06/14 06:40:24;;;;;;;7.50;2.90;;;;;;;18.22;60.34;100417.28;5041141;28;20053;-47
2023/06/14 06:42:51;;;;;;;10.32;3.60;;;;;;;18.37;60.00;100412.47;5046522;28;20045;-46
2023/06/14 06:45:18;;;;;;;9.25;2.33;;;;;;;18.54;59.09;100409.34;5047118;28;20814;-48
2023/06/14 06:47:44;;;;;;;12.32;3.03;;;;;;;18.72;59.82;100407.94;5043602;28;20053;-49
2023/06/14 06:50:11;;;;;;;8.38;2.63;;;;;;;18.84;58.58;100418.94;5043981;28;20044;-46
2023/06/14 06:52:38;;;;;;;6.57;2.60;;;;;;;19.00;58.95;100409.69;5041431;28;20048;-49
2023/06/14 06:55:05;;;;;;;4.10;2.22;;;;;;;19.22;58.80;100416.03;5041131;28;20075;-47
2023/06/14 06:57:31;;;;;;;6.05;2.10;;;;;;;19.43;58.20;100405.72;5045463;28;20053;-48
2023/06/14 06:59:58;;;;;;;5.13;1.95;;;;;;;19.66;58.13;100404.94;5042094;28;20409;-47
2023/06/14 07:02:25;;;;;;;7.63;2.47;;;;;;;19.80;57.43;100416.72;5045769;28;20136;-47
2023/06/14 07:04:51;;;;;;;5.70;2.15;;;;;;;19.88;57.26;100422.53;5043572;28;20048;-47
2023/06/14 07:07:18;;;;;;;9.43;3.25;;;;;;;19.92;57.05;100421.53;5043382;28;20051;-49
2023/06/14 07:09:45;;;;;;;6.18;3.28;;;;;;;20.05;57.29;100416.72;5044210;28;20102;-47
2023/06/14 07:12:12;;;;;;;8.40;1.88;;;;;;;20.21;56.80;100411.75;5041478;28;20049;-47
2023/06/14 07:14:38;;;;;;;7.15;3.20;;;;;;;20.34;56.54;100420.03;5044018;28;20075;-47
2023/06/14 07:17:05;;;;;;;6.80;2.33;;;;;;;20.53;57.03;100424.56;5044569;28;20445;-47
2023/06/14 07:19:33;;;;;;;7.47;2.05;;;;;;;20.80;55.72;100420.03;5046492;28;20665;-46
2023/06/14 07:21:59;;;;;;;5.93;2.42;;;;;;;20.97;55.05;100421.16;5041610;28;20584;-49
2023/06/14 07:24:28;;;;;;;7.35;2.53;;;;;;;21.13;55.10;100425.78;5039438;28;20690;-49
2023/06/14 07:26:56;;;;;;;6.78;2.25;;;;;;;21.31;55.49;100425.03;5043022;28;20416;-48
2023/06/14 07:29:22;;;;;;;9.27;1.63;;;;;;;21.55;54.60;100426.69;5042915;28;20049;-47
2023/06/14 07:31:49;;;;;;;5.68;2.72;;;;;;;21.85;54.22;100434.22;5044053;28;20144;-50
2023/06/14 07:34:16;;;;;;;6.43;2.30;;;;;;;22.09;53.43;100441.97;5043164;28;20056;-47
2023/06/14 07:36:44;;;;;;;5.25;2.63;;;;;;;22.34;52.91;100436.44;5046862;28;20752;-48
2023/06/14 07:39:11;;;;;;;7.10;2.75;;;;;;;22.53;52.93;100440.84;5042310;28;20044;-49
2023/06/14 07:41:37;;;;;;;8.00;2.10;;;;;;;22.68;52.50;100435.81;5043734;28;20044;-47
2023/06/14 07:44:04;;;;;;;8.18;2.33;;;;;;;22.89;52.01;100441.00;5040338;28;20613;-48
2023/06/14 07:46:31;;;;;;;8.20;2.97;;;;;;;23.01;51.17;100434.25;5041461;28;20041;-49
2023/06/14 07:48:58;;;;;;;8.75;2.30;;;;;;;23.09;50.66;100443.53;5042520;28;20052;-50
2023/06/14 07:51:25;;;;;;;5.43;2.33;;;;;;;23.19;50.69;100441.28;5037289;28;20053;-49
2023/06/14 07:53:51;;;;;;;10.00;1.92;;;;;;;23.28;50.54;100437.31;5044044;28;20056;-52
2023/06/14 07:56:18;;;;;;;6.68;2.50;;;;;;;23.40;50.14;100445.59;5041424;28;20052;-49
2023/06/14 07:58:44;;;;;;;10.93;2.65;;;;;;;23.45;50.22;100446.22;5044365;28;20044;-48
2023/06/14 08:01:12;;;;;;;6.45;2.88;;;;;;;23.57;49.89;100448.22;5045087;28;20053;-50
2023/06/14 08:03:38;;;;;;;8.52;2.17;;;;;;;23.69;49.45;100435.31;5035315;28;20056;-49
2023/06/14 08:06:07;;;;;;;6.78;2.13;;;;;;;23.84;49.40;100442.44;5041065;28;20136;-48
2023/06/14 08:08:33;;;;;;;8.05;2.50;;;;;;;24.00;48.66;100439.00;5039410;28;20057;-50
2023/06/14 08:11:00;;;;;;;7.75;2.25;;;;;;;24.06;48.62;100433.38;5043010;28;20045;-50
2023/06/14 08:13:27;;;;;;;7.70;2.22;;;;;;;24.17;48.64;100440.75;5043958;28;20080;-49
2023/06/14 08:15:55;;;;;;;7.95;1.58;;;;;;;24.33;48.54;100446.09;5047092;28;20107;-50
2023/06/14 08:18:22;;;;;;;6.53;2.50;;;;;;;24.49;48.30;100445.25;5042529;28;20068;-49
2023/06/14 08:20:49;;;;;;;7.00;2.17;;;;;;;24.67;47.71;100442.50;5046983;28;20041;-47
2023/06/14 08:23:18;;;;;;;7.55;3.13;;;;;;;24.80;48.05;100440.03;5041933;28;20416;-48
2023/06/14 08:25:45;;;;;;;7.50;2.35;;;;;;;25.06;47.52;100443.03;5042895;28;20561;-49
2023/06/14 08:28:12;;;;;;;9.27;2.55;;;;;;;25.19;47.03;100443.16;5039696;28;20052;-52
2023/06/14 08:30:39;;;;;;;6.90;2.55;;;;;;;25.26;47.05;100440.06;5040598;28;20528;-49
2023/06/14 08:33:05;;;;;;;7.45;2.75;;;;;;;25.40;46.85;100441.88;5042506;28;20289;-48
2023/06/14 08:35:42;;;;;;;7.60;2.55;;;;;;;25.62;46.60;100448.59;5042665;28;20102;-48
2023/06/14 08:38:10;;;;;;;8.68;2.15;;;;;;;25.84;46.75;100455.28;5037960;28;20053;-49
2023/06/14 08:40:39;;;;;;;9.20;2.78;;;;;;;26.06;46.44;100445.97;5045307;28;20479;-49
2023/06/14 08:43:07;;;;;;;9.25;2.13;;;;;;;26.16;45.61;100449.78;5030379;28;20488;-47
2023/06/14 08:45:33;;;;;;;8.68;2.75;;;;;;;26.27;45.12;100450.91;5046814;28;20516;-47
2023/06/14 08:48:01;;;;;;;6.35;2.45;;;;;;;26.40;45.12;100451.00;5038780;28;20551;-50
2023/06/14 08:50:30;;;;;;;6.45;2.05;;;;;;;26.53;45.92;100445.75;5031243;28;20080;-50
2023/06/14 08:53:01;;;;;;;4.28;2.10;;;;;;;26.71;45.18;100448.19;5050534;28;20045;-50
2023/06/14 08:55:30;;;;;;;7.45;2.30;;;;;;;26.89;44.95;100451.47;5041088;28;20052;-49
2023/06/14 08:58:03;;;;;;;5.38;3.22;;;;;;;26.97;44.34;100443.00;5025164;28;20045;-49
2023/06/14 09:00:30;;;;;;;6.10;2.75;;;;;;;26.99;43.78;100441.09;5041753;28;20044;-48
2023/06/14 09:02:57;;;;;;;9.63;3.03;;;;;;;26.99;44.14;100446.41;5043673;28;20518;-46
2023/06/14 09:05:26;;;;;;;5.30;2.78;;;;;;;27.16;43.49;100448.81;5044829;28;20067;-49
2023/06/14 09:07:56;;;;;;;7.70;2.88;;;;;;;27.34;43.27;100451.19;5034710;28;20096;-52
2023/06/14 09:10:25;;;;;;;6.53;2.97;;;;;;;27.54;43.55;100451.63;5031761;28;20049;-50
2023/06/14 09:12:53;;;;;;;8.70;2.45;;;;;;;27.60;42.42;100448.56;5045250;28;20099;-51
2023/06/14 09:15:20;;;;;;;6.85;2.78;;;;;;;27.66;42.99;100449.97;5033634;28;20041;-52
2023/06/14 09:17:47;;;;;;;7.63;2.40;;;;;;;27.69;42.48;100455.94;5048352;28;20099;-50
2023/06/14 09:20:18;;;;;;;6.75;2.55;;;;;;;27.73;42.62;100455.72;5039654;28;20110;-53
2023/06/14 09:22:46;;;;;;;7.00;2.70;;;;;;;27.68;41.75;100458.69;5042861;28;20098;-50
2023/06/14 09:25:15;;;;;;;6.55;2.30;;;;;;;27.66;42.47;100456.13;5022979;28;20049;-51
2023/06/14 09:27:59;;;;;;;7.28;2.33;;;;;;;27.78;43.48;100453.59;5046818;28;20041;-50
2023/06/14 09:30:26;;;;;;;9.82;3.40;;;;;;;27.94;41.87;100456.91;5025774;28;20445;-49
2023/06/14 09:32:52;;;;;;;7.45;2.90;;;;;;;28.08;42.81;100463.06;5035832;28;20453;-50
2023/06/14 09:35:20;;;;;;;4.55;2.67;;;;;;;28.31;42.69;100456.16;5043457;28;20174;-50
2023/06/14 09:37:47;;;;;;;5.22;2.03;;;;;;;28.40;41.89;100465.25;5042118;28;20099;-48
2023/06/14 09:40:20;;;;;;;5.95;3.28;;;;;;;28.41;40.22;100456.34;5048858;28;20059;-50
2023/06/14 09:42:47;;;;;;;7.00;2.45;;;;;;;28.45;40.79;100456.94;5045831;28;20045;-50
2023/06/14 09:45:19;;;;;;;7.85;2.75;;;;;;;28.61;41.27;100454.03;5028743;28;20584;-50
2023/06/14 09:47:47;;;;;;;6.60;2.90;;;;;;;28.71;40.69;100455.03;5027306;28;20042;-48
2023/06/14 09:50:32;;;;;;;8.45;2.55;;;;;;;28.72;39.53;100448.78;5023545;28;20405;-50
2023/06/14 09:53:05;;;;;;;7.60;3.38;;;;;;;28.69;40.52;100454.31;5018966;28;20045;-49
2023/06/14 09:55:36;;;;;;;5.60;2.42;;;;;;;28.69;39.35;100445.47;5034405;28;20570;-52
2023/06/14 09:58:06;;;;;;;8.45;3.05;;;;;;;28.73;40.40;100450.47;5048623;28;20079;-51
2023/06/14 10:00:34;;;;;;;6.47;3.25;;;;;;;28.87;40.95;100456.56;5047338;28;20427;-53
2023/06/14 10:03:11;;;;;;;3.92;2.47;;;;;;;28.98;39.82;100459.31;5050073;28;20226;-49
2023/06/14 10:05:41;;;;;;;8.73;2.55;;;;;;;29.08;40.68;100454.16;5048875;28;20125;-50
2023/06/14 10:08:10;;;;;;;7.28;3.00;;;;;;;29.12;39.42;100454.78;5039311;28;20057;-49
2023/06/14 10:10:40;;;;;;;6.72;2.35;;;;;;;29.06;39.04;100460.56;5033998;28;20053;-50
2023/06/14 10:13:07;;;;;;;10.70;3.75;;;;;;;29.06;38.67;100449.91;5030022;28;20041;-47
2023/06/14 10:18:36;;;;;;;5.82;2.60;;;;;;;29.01;38.32;100452.06;5055981;28;20400;-51
2023/06/14 10:21:28;;;;;;;6.47;2.70;;;;;;;29.06;39.16;100448.09;5007476;28;20053;-49
2023/06/14 10:23:58;;;;;;;4.40;2.95;;;;;;;29.17;39.46;100452.63;4999466;28;20601;-48
2023/06/14 10:26:24;;;;;;;;;;;;;;;29.23;40.47;100441.50;5006610;28;20134;-49
2023/06/14 10:29:06;;;;;;;5.45;2.47;;;;;;;29.48;39.26;100444.13;5003252;28;19969;-46
2023/06/14 10:31:50;;;;;;;4.85;3.25;;;;;;;29.59;38.72;100441.47;5008503;28;20058;-48
2023/06/14 10:34:26;;;;;;;7.75;2.05;;;;;;;29.54;37.46;100448.16;5014817;28;20080;-47
2023/06/14 10:39:42;;;;;;;6.78;3.38;;;;;;;29.45;37.78;100450.50;5023870;27;20398;-50
2023/06/14 10:42:09;;;;;;;4.72;2.13;;;;;;;29.55;37.62;100455.19;5000536;28;20052;-47
2023/06/14 10:47:37;;;;;;;6.03;4.03;;;;;;;29.54;37.58;100453.50;5039719;28;20410;-48
2023/06/14 10:52:43;;;;;;;7.72;2.15;;;;;;;29.85;37.48;100445.78;5044224;27;20406;-50
2023/06/14 11:00:29;;;;;;;8.60;3.95;;;;;;;29.98;36.49;100457.16;5063635;27;20407;-46
2023/06/14 11:11:07;;;;;;;6.15;3.33;;;;;;;29.96;37.08;100447.59;5050452;27;20845;-49
2023/06/14 11:13:36;;;;;;;6.13;3.20;;;;;;;30.01;36.51;100440.91;5027327;28;20052;-47
2023/06/14 11:16:11;;;;;;;7.15;2.92;;;;;;;30.06;36.29;100437.03;5042761;28;20057;-49
2023/06/14 11:18:38;;;;;;;6.13;2.33;;;;;;;30.14;36.11;100437.28;5041260;28;20103;-48
2023/06/14 11:21:05;;;;;;;5.72;2.53;;;;;;;30.14;37.41;100445.31;5041800;28;20053;-49
2023/06/14 11:23:32;;;;;;;9.18;3.00;;;;;;;30.08;35.86;100440.41;5043725;28;20052;-49
2023/06/14 11:25:58;;;;;;;6.53;2.85;;;;;;;30.14;36.95;100435.47;5042766;28;20508;-49
2023/06/14 11:28:36;;;;;;;9.98;3.42;;;;;;;30.24;37.58;100440.94;5043093;28;20124;-46
2023/06/14 11:31:03;;;;;;;8.00;2.90;;;;;;;30.26;36.82;100430.97;5038026;28;20045;-48
2023/06/14 11:33:30;;;;;;;7.15;2.55;;;;;;;30.24;36.34;100430.25;5041474;28;20405;-51
2023/06/14 11:35:57;;;;;;;9.57;3.35;;;;;;;30.30;36.10;100433.38;5039951;28;20056;-45
2023/06/14 11:38:26;;;;;;;7.07;3.05;;;;;;;30.33;36.90;100438.50;5042755;28;20059;-47
2023/06/14 11:40:52;;;;;;;14.10;3.70;;;;;;;30.37;36.47;100439.94;5041610;28;20045;-47
2023/06/14 11:43:19;;;;;;;6.03;2.80;;;;;;;30.38;36.80;100446.97;5041630;28;20052;-49
2023/06/14 11:45:48;;;;;;;6.70;2.92;;;;;;;30.38;36.42;100436.28;5041761;28;20053;-47
2023/06/14 11:48:37;;;;;;;10.70;2.72;;;;;;;30.33;35.94;100435.81;5042964;28;20566;-45
2023/06/14 11:51:05;;;;;;;6.60;2.25;;;;;;;30.25;36.10;100434.59;5039387;28;20132;-50
2023/06/14 11:53:31;;;;;;;6.13;2.92;;;;;;;30.24;36.39;100424.03;5038229;28;20045;-46
2023/06/14 11:55:58;;;;;;;5.85;2.58;;;;;;;30.25;37.14;100431.94;5046033;28;20076;-49
2023/06/14 11:58:27;;;;;;;6.80;2.58;;;;;;;30.17;35.85;100429.03;5035785;28;20052;-47
2023/06/14 12:00:54;;;;;;;7.05;3.28;;;;;;;30.18;36.29;100428.06;5039711;28;20105;-47